Time;durP1;ratioP1;P1;durP2;ratioP2;P2;SDS_P1;SDS_P2;PMS_P1;PMS_P2;Temp;Humidity;BMP_temperature;BMP_pressure;BME280_temperature;BME280_humidity;BME280_pressure;Samples;Min_cycle;Max_cycle;Signal;HPM_P1;HPM_P2
2023/12/08 00:00:18;;;;;;;29.60;16.30;;;77.30;2227.20;;;;;;5032159;28;20018;-69
2023/12/08 00:02:44;;;;;;;33.95;17.35;;;77.20;2227.20;;;;;;5011518;28;20033;-69
2023/12/08 00:05:10;;;;;;;34.15;17.95;;;77.20;2227.20;;;;;;5020025;28;20022;-70
2023/12/08 00:07:36;;;;;;;32.67;17.58;;;77.20;2227.20;;;;;;5013449;28;20026;-70
2023/12/08 00:10:03;;;;;;;33.67;18.42;;;77.20;2227.20;;;;;;5028434;28;20037;-70
2023/12/08 00:12:28;;;;;;;32.15;17.50;;;77.20;2227.20;;;;;;5032304;28;20032;-69
2023/12/08 00:14:54;;;;;;;34.40;18.23;;;77.20;2227.20;;;;;;5031788;28;20017;-72
2023/12/08 00:17:20;;;;;;;33.97;17.88;;;77.20;2227.20;;;;;;5032233;28;20485;-70
2023/12/08 00:19:46;;;;;;;32.15;17.33;;;77.20;2227.20;;;;;;5019322;28;20048;-70
2023/12/08 00:22:11;;;;;;;33.15;18.00;;;77.10;2227.20;;;;;;5010781;28;20032;-68
2023/12/08 00:24:37;;;;;;;32.83;16.95;;;77.10;2227.20;;;;;;5021269;28;20040;-70
2023/12/08 00:27:03;;;;;;;33.17;17.80;;;77.10;2227.20;;;;;;5012996;28;20028;-68
2023/12/08 00:29:29;;;;;;;32.20;16.92;;;77.10;2227.20;;;;;;5022844;28;20033;-69
2023/12/08 00:31:55;;;;;;;31.60;17.25;;;77.10;2227.20;;;;;;5031416;28;20028;-70
2023/12/08 00:34:20;;;;;;;30.70;16.85;;;77.10;2227.20;;;;;;5031747;28;20028;-71
2023/12/08 00:36:46;;;;;;;29.60;16.13;;;77.10;2227.20;;;;;;5013743;28;20033;-70
2023/12/08 00:39:12;;;;;;;33.40;16.75;;;77.00;2227.20;;;;;;5010178;28;20108;-70
2023/12/08 00:41:38;;;;;;;30.52;17.63;;;77.00;2227.20;;;;;;5013498;28;20485;-70
2023/12/08 00:44:04;;;;;;;34.25;16.70;;;77.00;2227.20;;;;;;5016255;28;20429;-69
2023/12/08 00:46:30;;;;;;;33.30;17.70;;;77.00;2227.20;;;;;;5014037;28;20054;-70
2023/12/08 00:48:55;;;;;;;30.23;16.10;;;77.00;2227.20;;;;;;5030731;28;20036;-68
2023/12/08 00:51:21;;;;;;;31.42;17.50;;;77.10;2227.20;;;;;;5024106;28;20026;-69
2023/12/08 00:53:47;;;;;;;31.92;17.08;;;77.10;2227.20;;;;;;5012670;28;20404;-70
2023/12/08 00:56:12;;;;;;;30.33;17.08;;;77.10;2227.20;;;;;;5010081;28;20029;-70
2023/12/08 00:58:38;;;;;;;31.02;17.30;;;77.10;2227.20;;;;;;5007019;28;20034;-70
2023/12/08 01:01:04;;;;;;;33.17;17.88;;;77.10;2227.20;;;;;;5021351;28;20065;-69
2023/12/08 01:03:30;;;;;;;31.45;17.67;;;77.20;2227.20;;;;;;5012140;28;20029;-71
2023/12/08 01:05:57;;;;;;;33.63;17.83;;;77.10;2227.20;;;;;;5024081;28;20096;-69
2023/12/08 01:08:23;;;;;;;33.03;17.52;;;77.10;2227.20;;;;;;5031111;28;20168;-68
2023/12/08 01:10:48;;;;;;;32.53;17.98;;;77.00;2227.20;;;;;;5031009;28;20526;-70
2023/12/08 01:13:14;;;;;;;34.50;17.27;;;77.00;2227.20;;;;;;5030532;28;20433;-69
2023/12/08 01:15:40;;;;;;;32.50;16.88;;;77.00;2227.20;;;;;;5031068;28;20128;-70
2023/12/08 01:18:05;;;;;;;33.15;17.38;;;77.00;2227.20;;;;;;5010451;28;20037;-69
2023/12/08 01:20:31;;;;;;;35.58;18.88;;;77.00;2227.20;;;;;;5007479;28;20092;-69
2023/12/08 01:22:57;;;;;;;35.30;18.00;;;77.00;2227.20;;;;;;5012879;28;20080;-72
2023/12/08 01:25:22;;;;;;;32.70;16.92;;;77.00;2227.20;;;;;;5012888;28;20030;-70
2023/12/08 01:27:48;;;;;;;32.20;17.63;;;77.00;2227.20;;;;;;5012493;28;20471;-69
2023/12/08 01:30:14;;;;;;;33.47;17.92;;;77.00;2227.20;;;;;;5012265;28;20041;-70
2023/12/08 01:32:39;;;;;;;31.95;17.25;;;77.00;2227.20;;;;;;5012427;28;20030;-69
2023/12/08 01:35:06;;;;;;;34.67;17.92;;;76.90;2227.20;;;;;;5012625;28;20034;-69
2023/12/08 01:37:32;;;;;;;32.88;17.50;;;76.90;2227.20;;;;;;5013195;28;20038;-69
2023/12/08 01:39:57;;;;;;;32.65;17.45;;;77.00;2227.20;;;;;;5005119;28;20022;-69
2023/12/08 01:42:23;;;;;;;34.35;18.02;;;77.00;2227.20;;;;;;5000584;28;20049;-70
2023/12/08 01:44:49;;;;;;;33.08;17.73;;;77.00;2227.20;;;;;;4999639;28;20026;-70
2023/12/08 01:47:16;;;;;;;32.55;17.95;;;77.00;2227.20;;;;;;4999916;28;20026;-69
2023/12/08 01:49:42;;;;;;;33.13;17.90;;;77.00;2227.20;;;;;;5020492;28;20068;-70
2023/12/08 01:52:09;;;;;;;32.00;17.05;;;77.00;2227.20;;;;;;5017687;28;20134;-70
2023/12/08 01:54:35;;;;;;;32.80;17.58;;;77.00;2227.20;;;;;;5012925;28;20024;-71
2023/12/08 01:57:02;;;;;;;35.88;18.05;;;76.90;2227.20;;;;;;5008356;28;20032;-68
2023/12/08 01:59:29;;;;;;;34.38;18.30;;;76.90;2227.20;;;;;;5010353;28;20048;-71
2023/12/08 02:01:55;;;;;;;32.75;16.70;;;76.90;2227.20;;;;;;5012261;28;20022;-70
2023/12/08 02:04:21;;;;;;;31.08;17.27;;;76.80;2227.20;;;;;;5011780;28;20032;-70
2023/12/08 02:06:47;;;;;;;33.83;17.73;;;;;;;;;;5012616;28;20101;-73
2023/12/08 02:09:13;;;;;;;32.88;17.67;;;;;;;;;;5012229;28;20041;-69
2023/12/08 02:11:40;;;;;;;35.70;19.05;;;;;;;;;;5012707;28;20056;-69
2023/12/08 02:14:06;;;;;;;33.78;18.20;;;;;;;;;;5012031;28;20033;-70
2023/12/08 02:16:40;;;;;;;33.60;18.08;;;;;;;;;;5008078;28;20022;-69
2023/12/08 02:19:08;;;;;;;37.72;18.73;;;;;;;;;;5006539;28;20364;-71
2023/12/08 02:21:34;;;;;;;38.47;19.45;;;;;;;;;;5011295;28;20034;-69
2023/12/08 02:24:00;;;;;;;34.45;18.13;;;;;;;;;;5012158;28;20161;-70
2023/12/08 02:26:27;;;;;;;35.92;18.50;;;;;;;;;;5011417;28;20049;-70
2023/12/08 02:28:53;;;;;;;37.40;18.73;;;;;;;;;;5011329;28;20046;-69
2023/12/08 02:31:25;;;;;;;35.50;18.33;;;;;;;;;;5012007;28;20028;-70
2023/12/08 02:33:52;;;;;;;33.50;17.17;;;77.00;2227.20;;;;;;5011740;28;20034;-69
2023/12/08 02:36:18;;;;;;;34.97;18.27;;;52.10;2227.20;;;;;;5008600;28;20028;-72
2023/12/08 02:38:47;;;;;;;36.25;18.38;;;52.10;2227.20;;;;;;5005419;28;20018;-70
2023/12/08 02:41:13;;;;;;;39.03;19.00;;;52.10;2227.20;;;;;;5011576;28;20029;-69
2023/12/08 02:43:38;;;;;;;39.03;19.88;;;52.10;2227.20;;;;;;5013926;28;20021;-70
2023/12/08 02:46:04;;;;;;;36.80;19.17;;;52.10;2227.20;;;;;;5027759;28;20038;-71
2023/12/08 02:48:30;;;;;;;37.45;18.92;;;52.10;2227.20;;;;;;5011499;28;20495;-69
2023/12/08 02:50:55;;;;;;;36.95;18.88;;;52.10;2227.20;;;;;;5011326;28;20042;-71
2023/12/08 02:53:21;;;;;;;34.35;18.20;;;52.10;2227.20;;;;;;5025310;28;20477;-72
2023/12/08 02:55:47;;;;;;;36.22;18.58;;;52.00;2227.20;;;;;;5015817;28;20093;-69
2023/12/08 02:58:12;;;;;;;37.63;18.73;;;52.00;2227.20;;;;;;5007486;28;20026;-68
2023/12/08 03:00:38;;;;;;;38.25;19.40;;;52.00;2227.20;;;;;;5011742;28;20079;-69
2023/12/08 03:03:04;;;;;;;36.58;19.13;;;52.10;2227.20;;;;;;5011709;28;20041;-70
2023/12/08 03:05:29;;;;;;;33.88;18.60;;;52.00;2227.20;;;;;;5011287;28;20109;-71
2023/12/08 03:07:55;;;;;;;37.67;18.48;;;52.00;2227.20;;;;;;5011367;28;20029;-70
2023/12/08 03:10:21;;;;;;;37.25;18.90;;;52.00;2227.20;;;;;;5011030;28;20034;-70
2023/12/08 03:12:46;;;;;;;40.05;18.45;;;52.00;2227.20;;;;;;5009843;28;20034;-70
2023/12/08 03:15:12;;;;;;;37.42;18.75;;;52.00;2227.20;;;;;;5007321;28;20033;-69
2023/12/08 03:17:38;;;;;;;39.88;19.33;;;52.00;2227.20;;;;;;5014147;28;20041;-70
2023/12/08 03:20:04;;;;;;;37.70;19.60;;;52.00;2227.20;;;;;;5014722;28;20477;-71
2023/12/08 03:22:30;;;;;;;39.85;19.52;;;52.00;2227.20;;;;;;5014992;28;20026;-69
2023/12/08 03:24:55;;;;;;;34.25;18.25;;;52.00;2227.20;;;;;;5015343;28;20076;-69
2023/12/08 03:27:21;;;;;;;36.67;17.92;;;52.00;2227.20;;;;;;5015004;28;20076;-70
2023/12/08 03:29:47;;;;;;;37.67;19.08;;;52.00;2227.20;;;;;;5014345;28;20034;-68
2023/12/08 03:32:12;;;;;;;37.60;19.08;;;52.00;2227.20;;;;;;5012525;28;20422;-69
2023/12/08 03:34:38;;;;;;;36.63;18.98;;;52.00;2227.20;;;;;;5009555;28;20037;-69
2023/12/08 03:37:04;;;;;;;40.03;19.77;;;52.00;2227.20;;;;;;5014572;28;20057;-72
2023/12/08 03:39:29;;;;;;;36.67;19.25;;;52.00;2227.20;;;;;;5014721;28;20375;-69
2023/12/08 03:41:55;;;;;;;36.20;18.35;;;52.00;2227.20;;;;;;5014994;28;20030;-70
2023/12/08 03:44:21;;;;;;;36.85;18.95;;;52.00;2227.20;;;;;;5014643;28;20548;-68
2023/12/08 03:46:46;;;;;;;35.45;19.33;;;52.00;2227.20;;;;;;5014295;28;20418;-70
2023/12/08 03:49:12;;;;;;;39.25;19.58;;;52.00;2227.20;;;;;;5014260;28;20041;-69
2023/12/08 03:51:38;;;;;;;37.85;19.85;;;52.00;2227.20;;;;;;5009397;28;20112;-68
2023/12/08 03:54:03;;;;;;;40.13;19.42;;;52.00;2227.20;;;;;;5011879;28;20033;-70
2023/12/08 03:56:29;;;;;;;38.85;19.92;;;52.00;2227.20;;;;;;5014333;28;20065;-68
2023/12/08 03:58:55;;;;;;;37.33;19.50;;;52.00;2227.20;;;;;;5014131;28;20026;-70
2023/12/08 04:01:21;;;;;;;39.90;20.75;;;52.00;2227.20;;;;;;5014203;28;20036;-69
2023/12/08 04:03:47;;;;;;;41.80;20.65;;;52.00;2227.20;;;;;;5014172;28;20030;-70
2023/12/08 04:06:13;;;;;;;46.35;22.80;;;52.00;2227.20;;;;;;5014281;28;20522;-69
2023/12/08 04:08:39;;;;;;;45.53;22.65;;;52.10;2227.20;;;;;;5011776;28;20017;-69
2023/12/08 04:11:05;;;;;;;43.65;21.77;;;52.10;2227.20;;;;;;5008307;28;20037;-72
2023/12/08 04:13:31;;;;;;;46.15;23.00;;;76.80;2227.20;;;;;;5011941;28;20029;-69
2023/12/08 04:15:57;;;;;;;44.83;23.00;;;76.80;2227.20;;;;;;5014135;28;20040;-69
2023/12/08 04:18:22;;;;;;;46.15;23.05;;;76.80;2227.20;;;;;;5014108;28;20379;-69
2023/12/08 04:20:48;;;;;;;46.55;23.60;;;76.80;2227.20;;;;;;5013613;28;20022;-68
2023/12/08 04:23:14;;;;;;;47.15;22.42;;;76.80;2227.20;;;;;;5014510;28;20034;-69
2023/12/08 04:25:39;;;;;;;46.17;23.15;;;77.10;2227.20;;;;;;5013285;28;20034;-69
2023/12/08 04:28:05;;;;;;;45.22;22.88;;;76.90;2227.20;;;;;;5014012;28;20052;-69
2023/12/08 04:30:31;;;;;;;47.63;23.05;;;76.90;2227.20;;;;;;5008494;28;20038;-69
2023/12/08 04:32:57;;;;;;;45.85;22.17;;;76.90;2227.20;;;;;;5009544;28;20501;-69
2023/12/08 04:35:24;;;;;;;47.53;22.55;;;76.90;2227.20;;;;;;4996211;28;20041;-69
2023/12/08 04:37:53;;;;;;;46.45;22.75;;;76.80;2227.20;;;;;;5013540;28;20018;-70
2023/12/08 04:40:18;;;;;;;45.30;22.00;;;76.90;2227.20;;;;;;5014016;28;20029;-69
2023/12/08 04:42:45;;;;;;;46.65;22.58;;;76.80;2227.20;;;;;;5013568;28;20017;-70
2023/12/08 04:45:13;;;;;;;47.80;23.15;;;77.00;2227.20;;;;;;5013520;28;20578;-69
2023/12/08 04:47:40;;;;;;;46.20;22.50;;;76.80;2227.20;;;;;;5010690;28;20072;-70
2023/12/08 04:50:06;;;;;;;47.60;23.50;;;76.90;2227.20;;;;;;5006608;28;20074;-70
2023/12/08 04:52:35;;;;;;;48.28;23.70;;;76.90;2227.20;;;;;;5001749;28;20117;-68
2023/12/08 04:55:04;;;;;;;52.83;24.63;;;76.90;2227.20;;;;;;4997254;28;20472;-69
2023/12/08 04:57:31;;;;;;;48.47;23.30;;;76.90;2227.20;;;;;;4994226;28;20158;-70
2023/12/08 04:59:57;;;;;;;45.83;22.98;;;77.00;2227.20;;;;;;5006017;28;20038;-69
2023/12/08 05:02:22;;;;;;;50.20;23.55;;;76.90;2227.20;;;;;;5013033;28;20029;-68
2023/12/08 05:04:48;;;;;;;49.38;23.63;;;77.00;2227.20;;;;;;5013225;28;20033;-69
2023/12/08 05:07:14;;;;;;;49.72;23.90;;;76.90;2227.20;;;;;;5013209;28;20029;-69
2023/12/08 05:09:39;;;;;;;46.50;22.38;;;76.90;2227.20;;;;;;5007620;28;20029;-69
2023/12/08 05:12:05;;;;;;;46.95;23.60;;;76.90;2227.20;;;;;;5003081;28;20062;-69
2023/12/08 05:14:31;;;;;;;50.55;23.77;;;76.80;2227.20;;;;;;5003543;28;20030;-70
2023/12/08 05:16:57;;;;;;;54.17;26.65;;;76.80;2227.20;;;;;;4993470;28;20138;-70
2023/12/08 05:19:23;;;;;;;62.28;30.48;;;76.80;2227.20;;;;;;4993153;28;20149;-69
2023/12/08 05:21:48;;;;;;;60.83;29.77;;;76.90;2227.20;;;;;;5004162;28;20018;-68
2023/12/08 05:24:14;;;;;;;59.67;29.75;;;76.80;2227.20;;;;;;5011201;28;20022;-69
2023/12/08 05:26:39;;;;;;;61.55;31.42;;;76.80;2227.20;;;;;;5006738;28;20117;-69
2023/12/08 05:29:05;;;;;;;67.25;32.47;;;76.80;2227.20;;;;;;5012996;28;20038;-69
2023/12/08 05:31:31;;;;;;;61.28;31.83;;;76.80;2227.20;;;;;;5012488;28;20378;-69
2023/12/08 05:33:56;;;;;;;61.47;31.27;;;76.90;2227.20;;;;;;5013063;28;20124;-70
2023/12/08 05:36:22;;;;;;;59.10;30.08;;;76.90;2227.20;;;;;;5011295;28;20049;-69
2023/12/08 05:38:48;;;;;;;67.38;31.52;;;76.90;2227.20;;;;;;5011331;28;20536;-69
2023/12/08 05:41:13;;;;;;;59.67;29.95;;;76.90;2227.20;;;;;;5011975;28;20038;-70
2023/12/08 05:43:39;;;;;;;60.67;29.52;;;76.90;2227.20;;;;;;5012358;28;20438;-70
2023/12/08 05:46:05;;;;;;;61.88;30.02;;;76.90;2227.20;;;;;;5013380;28;20438;-70
2023/12/08 05:48:30;;;;;;;64.78;30.17;;;76.90;2227.20;;;;;;5012701;28;20394;-70
2023/12/08 05:50:56;;;;;;;61.15;30.45;;;76.90;2227.20;;;;;;5007688;28;20475;-70
2023/12/08 05:53:22;;;;;;;75.63;36.45;;;76.90;2227.20;;;;;;5007394;28;20049;-70
2023/12/08 05:55:47;;;;;;;69.18;33.25;;;77.00;2227.20;;;;;;5006862;28;20030;-69
2023/12/08 05:58:13;;;;;;;66.03;31.90;;;76.90;2227.20;;;;;;5018295;28;20057;-69
2023/12/08 06:00:39;;;;;;;75.85;33.03;;;76.90;2227.20;;;;;;5017509;28;20048;-69
2023/12/08 06:03:04;;;;;;;79.70;34.10;;;76.90;2227.20;;;;;;5031911;28;20021;-69
2023/12/08 06:05:30;;;;;;;80.60;33.53;;;76.80;2227.20;;;;;;5028377;28;20667;-69
2023/12/08 06:07:56;;;;;;;94.80;35.70;;;76.80;2227.20;;;;;;5006288;28;20053;-70
2023/12/08 06:10:23;;;;;;;87.28;34.58;;;76.80;2227.20;;;;;;5008479;28;20049;-68
2023/12/08 06:12:49;;;;;;;95.90;38.65;;;76.90;2227.20;;;;;;5004904;28;20394;-69
2023/12/08 06:15:14;;;;;;;95.70;37.92;;;76.90;2227.20;;;;;;5015184;28;20105;-69
2023/12/08 06:17:40;;;;;;;100.85;41.35;;;76.90;2227.20;;;;;;5014020;28;20065;-71
2023/12/08 06:20:09;;;;;;;95.43;40.08;;;76.80;2227.20;;;;;;5014359;28;20028;-69
2023/12/08 06:22:35;;;;;;;81.45;38.17;;;76.90;2227.20;;;;;;5013370;28;20018;-68
2023/12/08 06:25:00;;;;;;;66.45;32.40;;;76.90;2227.20;;;;;;5010959;28;20037;-69
2023/12/08 06:27:26;;;;;;;64.75;31.70;;;76.90;2227.20;;;;;;5014921;28;20053;-69
2023/12/08 06:29:52;;;;;;;62.17;30.70;;;76.90;2227.20;;;;;;5006827;28;20457;-69
2023/12/08 06:32:18;;;;;;;60.65;29.65;;;77.40;2227.20;;;;;;5010923;28;20037;-69
2023/12/08 06:34:46;;;;;;;59.08;28.23;;;76.90;2227.20;;;;;;5009688;28;20045;-68
2023/12/08 06:37:12;;;;;;;62.13;29.10;;;76.80;2227.20;;;;;;5012108;28;20042;-71
2023/12/08 06:39:39;;;;;;;57.40;28.00;;;77.10;2227.20;;;;;;5012555;28;20030;-70
2023/12/08 06:42:06;;;;;;;57.53;27.85;;;76.80;2227.20;;;;;;5010553;28;20033;-69
2023/12/08 06:44:31;;;;;;;71.32;33.75;;;76.80;2227.20;;;;;;5016240;28;20124;-69
2023/12/08 06:47:06;;;;;;;115.95;56.53;;;76.80;2227.20;;;;;;5016781;28;20562;-68
2023/12/08 06:49:31;;;;;;;96.53;46.27;;;76.80;2227.20;;;;;;4996626;28;20172;-68
2023/12/08 06:51:57;;;;;;;95.65;45.40;;;76.90;2227.20;;;;;;5016650;28;20113;-69
2023/12/08 06:54:23;;;;;;;85.45;41.50;;;76.80;2227.20;;;;;;5009381;28;20038;-68
2023/12/08 06:56:48;;;;;;;72.95;36.85;;;76.80;2227.20;;;;;;5012523;28;20029;-69
2023/12/08 06:59:14;;;;;;;78.05;40.78;;;52.10;2227.20;;;;;;5017889;28;20022;-69
2023/12/08 07:01:41;;;;;;;71.75;36.38;;;76.80;2227.20;;;;;;5022711;28;20022;-70
2023/12/08 07:04:07;;;;;;;77.30;37.45;;;76.80;2227.20;;;;;;5023142;28;20026;-70
2023/12/08 07:06:35;;;;;;;77.63;38.85;;;76.80;2227.20;;;;;;5020783;28;20379;-69
2023/12/08 07:09:01;;;;;;;88.90;44.00;;;76.90;2227.20;;;;;;5006474;28;20037;-69
2023/12/08 07:11:27;;;;;;;115.97;54.67;;;76.90;2227.20;;;;;;5028685;28;20018;-69
2023/12/08 07:13:53;;;;;;;131.05;57.38;;;77.00;2227.20;;;;;;5009663;28;20036;-70
2023/12/08 07:16:18;;;;;;;114.70;53.60;;;77.00;2227.20;;;;;;5011510;28;20471;-70
2023/12/08 07:18:45;;;;;;;98.50;49.38;;;77.00;2227.20;;;;;;5015423;28;20458;-69
2023/12/08 07:21:11;;;;;;;171.38;83.13;;;77.00;2227.20;;;;;;5015237;28;20030;-70
2023/12/08 07:23:40;;;;;;;145.93;74.18;;;77.00;2227.20;;;;;;5014845;28;20028;-68
2023/12/08 07:26:05;;;;;;;82.57;41.95;;;77.00;2227.20;;;;;;5002012;28;20026;-69
2023/12/08 07:28:31;;;;;;;75.20;37.55;;;77.10;2227.20;;;;;;5006744;28;20056;-77
2023/12/08 07:30:57;;;;;;;69.25;35.28;;;77.10;2227.20;;;;;;5021197;28;20439;-75
2023/12/08 07:33:22;;;;;;;69.10;34.17;;;77.10;2227.20;;;;;;5019802;28;20022;-76
2023/12/08 07:35:48;;;;;;;65.88;33.03;;;77.20;2227.20;;;;;;5011643;28;20502;-62
2023/12/08 07:38:14;;;;;;;74.78;37.35;;;77.20;2227.20;;;;;;5009085;28;20034;-69
2023/12/08 07:40:40;;;;;;;82.82;41.80;;;77.20;2227.20;;;;;;5010336;28;20050;-77
2023/12/08 07:43:06;;;;;;;78.13;38.85;;;77.30;2227.20;;;;;;5000605;28;20503;-76
2023/12/08 07:45:31;;;;;;;75.88;39.35;;;77.30;2227.20;;;;;;5022754;28;20054;-76
2023/12/08 07:47:57;;;;;;;66.88;36.63;;;77.20;2227.20;;;;;;5016835;28;20038;-71
2023/12/08 07:50:24;;;;;;;53.10;29.77;;;77.30;2227.20;;;;;;5018035;28;20046;-77
2023/12/08 07:52:51;;;;;;;39.53;21.08;;;77.20;2227.20;;;;;;5017693;28;20030;-76
2023/12/08 07:55:17;;;;;;;52.17;27.42;;;77.20;2227.20;;;;;;5017601;28;20034;-69
2023/12/08 07:57:43;;;;;;;41.13;22.65;;;77.20;2227.20;;;;;;5017904;28;20033;-76
2023/12/08 08:00:12;;;;;;;46.80;25.65;;;77.30;2227.20;;;;;;5017301;28;20026;-75
2023/12/08 08:02:37;;;;;;;28.20;15.55;;;77.30;2227.20;;;;;;5018006;28;20116;-64
2023/12/08 08:05:04;;;;;;;26.48;13.98;;;77.20;1868.80;;;;;;5020840;28;20072;-69
2023/12/08 08:07:31;;;;;;;24.98;13.43;;;76.80;2227.20;;;;;;5018119;28;20038;-78
2023/12/08 08:09:56;;;;;;;92.93;39.88;;;77.30;2227.20;;;;;;5017071;28;20041;-68
2023/12/08 08:12:22;;;;;;;84.78;36.15;;;77.70;1868.80;;;;;;5015675;28;20033;-74
2023/12/08 08:14:48;;;;;;;187.57;64.28;;;77.50;2227.20;;;;;;5012814;28;20533;-63
2023/12/08 08:17:14;;;;;;;141.13;50.20;;;77.50;2227.20;;;;;;5001954;28;20034;-63
2023/12/08 08:19:41;;;;;;;81.03;37.35;;;77.50;1971.20;;;;;;5014784;28;20026;-64
2023/12/08 08:22:07;;;;;;;70.68;36.13;;;77.60;2227.20;;;;;;5014578;28;20026;-63
2023/12/08 08:24:32;;;;;;;170.85;99.07;;;102.40;2227.20;;;;;;5015081;28;20509;-77
2023/12/08 08:26:58;;;;;;;15.82;9.27;;;102.40;2227.20;;;;;;5023888;28;20025;-72
2023/12/08 08:29:24;;;;;;;20.27;11.02;;;102.40;2227.20;;;;;;5029101;28;20030;-69
2023/12/08 08:31:52;;;;;;;26.13;14.30;;;77.70;2227.20;;;;;;5015490;28;20026;-74
2023/12/08 08:34:18;;;;;;;28.92;15.23;;;102.40;2227.20;;;;;;5015480;28;20018;-76
2023/12/08 08:36:44;;;;;;;28.17;16.33;;;102.60;2227.20;;;;;;5014474;28;20021;-68
2023/12/08 08:39:09;;;;;;;22.67;12.73;;;102.80;2227.20;;;;;;5013422;28;20022;-76
2023/12/08 08:41:35;;;;;;;15.88;9.77;;;102.70;2227.20;;;;;;5006290;28;20030;-74
2023/12/08 08:44:01;;;;;;;17.90;10.38;;;102.80;2227.20;;;;;;5018953;28;20065;-67
2023/12/08 08:46:27;;;;;;;18.08;10.98;;;102.90;2227.20;;;;;;5004400;28;20176;-71
2023/12/08 08:48:54;;;;;;;13.82;8.00;;;102.90;2227.20;;;;;;5012245;28;20030;-67
2023/12/08 08:51:21;;;;;;;12.25;6.57;;;103.00;2227.20;;;;;;5012670;28;20038;-69
2023/12/08 08:53:49;;;;;;;12.57;7.03;;;103.00;2227.20;;;;;;5001581;28;20451;-77
2023/12/08 08:56:15;;;;;;;17.75;9.98;;;103.00;2227.20;;;;;;5014500;28;20033;-69
2023/12/08 08:58:41;;;;;;;39.38;23.25;;;102.90;2227.20;;;;;;5034876;28;20025;-74
2023/12/08 09:01:07;;;;;;;15.45;9.10;;;102.80;2227.20;;;;;;5033650;28;20033;-74
2023/12/08 09:03:33;;;;;;;13.38;8.20;;;102.80;2227.20;;;;;;5021263;28;20391;-63
2023/12/08 09:05:58;;;;;;;20.00;11.80;;;102.50;2227.20;;;;;;5008369;28;20042;-72
2023/12/08 09:08:24;;;;;;;24.05;14.57;;;102.50;2227.20;;;;;;5015311;28;20045;-62
2023/12/08 09:10:50;;;;;;;34.88;21.73;;;102.50;2227.20;;;;;;5015501;28;20037;-64
2023/12/08 09:13:16;;;;;;;29.92;17.08;;;102.50;2227.20;;;;;;5015505;28;20033;-70
2023/12/08 09:15:43;;;;;;;64.65;35.67;;;102.50;2227.20;;;;;;5015052;28;20418;-73
2023/12/08 09:18:09;;;;;;;18.27;11.20;;;102.70;2227.20;;;;;;5013275;28;20029;-73
2023/12/08 09:20:36;;;;;;;73.50;43.00;;;102.80;2227.20;;;;;;5009048;28;20034;-67
2023/12/08 09:23:02;;;;;;;20.20;13.07;;;103.00;2227.20;;;;;;5000358;28;20062;-77
2023/12/08 09:25:28;;;;;;;20.63;12.00;;;103.00;2227.20;;;;;;5013351;28;20022;-76
2023/12/08 09:27:53;;;;;;;19.70;12.18;;;103.10;2227.20;;;;;;5014341;28;20079;-64
2023/12/08 09:30:19;;;;;;;23.45;14.07;;;103.30;2227.20;;;;;;5019784;28;20036;-72
2023/12/08 09:32:45;;;;;;;23.42;11.63;;;128.00;2252.80;;;;;;5014604;28;20030;-64
2023/12/08 09:35:11;;;;;;;30.85;16.25;;;128.00;2252.80;;;;;;4998224;28;20084;-63
2023/12/08 09:37:36;;;;;;;22.15;11.38;;;128.00;2252.80;;;;;;5033316;28;20398;-65
2023/12/08 09:40:03;;;;;;;22.35;11.80;;;128.00;2252.80;;;;;;5033018;28;20026;-65
2023/12/08 09:42:39;;;;;;;28.83;15.70;;;128.00;2252.80;;;;;;5033079;28;20104;-75
2023/12/08 09:45:05;;;;;;;21.20;12.88;;;128.00;2252.80;;;;;;5032734;28;20045;-63
2023/12/08 09:47:34;;;;;;;26.77;16.25;;;103.10;2227.20;;;;;;5021940;28;20021;-63
2023/12/08 09:50:03;;;;;;;21.73;11.70;;;103.10;2227.20;;;;;;5013319;28;20537;-64
2023/12/08 09:52:30;;;;;;;26.58;15.50;;;102.90;2227.20;;;;;;5009759;28;20145;-69
2023/12/08 09:54:57;;;;;;;18.30;10.85;;;103.20;2227.20;;;;;;5013247;28;20042;-76
2023/12/08 09:57:24;;;;;;;21.23;11.27;;;102.90;2227.20;;;;;;5012688;28;20058;-66
2023/12/08 09:59:51;;;;;;;20.80;11.20;;;102.70;2227.20;;;;;;5030930;28;20095;-62
2023/12/08 10:02:18;;;;;;;28.42;15.18;;;102.70;2227.20;;;;;;5031437;28;20020;-63
2023/12/08 10:04:45;;;;;;;21.02;12.35;;;102.90;2227.20;;;;;;5022702;28;20022;-66
2023/12/08 10:07:13;;;;;;;17.13;9.60;;;103.00;2227.20;;;;;;4996116;28;20038;-80
2023/12/08 10:09:41;;;;;;;21.83;11.38;;;102.90;2227.20;;;;;;5012080;28;20036;-74
2023/12/08 10:12:07;;;;;;;25.45;14.20;;;102.90;2227.20;;;;;;5012920;28;20432;-63
2023/12/08 10:14:33;;;;;;;76.70;36.47;;;103.20;2227.20;;;;;;5012826;28;20046;-68
2023/12/08 10:16:58;;;;;;;72.72;36.45;;;128.20;2252.80;;;;;;5013016;28;20034;-63
2023/12/08 10:19:24;;;;;;;29.70;16.45;;;128.60;2252.80;;;;;;5012796;28;20022;-69
2023/12/08 10:22:02;;;;;;;62.80;31.10;;;154.00;2252.80;;;;;;5012593;28;20528;-74
2023/12/08 10:24:30;;;;;;;141.30;61.92;;;154.00;2252.80;;;;;;5011563;28;20025;-77
2023/12/08 10:26:58;;;;;;;474.55;159.13;;;154.30;2252.80;;;;;;5012670;28;20116;-75
2023/12/08 10:29:28;;;;;;;271.85;82.85;;;154.50;2252.80;;;;;;5011362;28;20045;-64
2023/12/08 10:31:55;;;;;;;85.28;36.00;;;180.10;2252.80;;;;;;5005522;28;20030;-64
2023/12/08 10:34:21;;;;;;;140.68;58.70;;;205.20;2252.80;;;;;;5009529;28;20057;-75
2023/12/08 10:36:48;;;;;;;177.50;70.50;;;205.30;2252.80;;;;;;5012203;28;20033;-67
2023/12/08 10:39:13;;;;;;;42.05;21.70;;;204.90;2252.80;;;;;;5011749;28;20030;-63
2023/12/08 10:41:39;;;;;;;46.72;25.73;;;180.00;2252.80;;;;;;5013760;28;20033;-64
2023/12/08 10:44:08;;;;;;;51.25;25.33;;;179.70;2252.80;;;;;;5032621;28;20021;-64
2023/12/08 10:46:36;;;;;;;39.17;18.55;;;179.40;2252.80;;;;;;5032000;28;20049;-64
2023/12/08 10:49:04;;;;;;;35.45;18.67;;;179.30;2252.80;;;;;;5031837;28;20034;-63
2023/12/08 10:51:30;;;;;;;35.78;18.30;;;154.20;2252.80;;;;;;5015810;28;20026;-78
2023/12/08 10:53:57;;;;;;;36.45;19.02;;;154.20;2252.80;;;;;;5011766;28;20109;-64
2023/12/08 10:56:23;;;;;;;137.90;59.47;;;154.00;2252.80;;;;;;5012695;28;20083;-71
2023/12/08 10:58:56;;;;;;;32.55;17.75;;;153.90;2252.80;;;;;;5012207;28;20018;-76
2023/12/08 11:01:23;;;;;;;30.17;16.70;;;153.60;2252.80;;;;;;5007209;28;20087;-69
2023/12/08 11:03:53;;;;;;;33.78;19.67;;;128.80;2252.80;;;;;;5031807;28;20026;-65
2023/12/08 11:06:24;;;;;;;99.90;46.25;;;128.80;2252.80;;;;;;5030352;28;20036;-69
2023/12/08 11:08:56;;;;;;;27.35;16.70;;;153.80;2252.80;;;;;;4995796;28;20034;-70
2023/12/08 11:11:24;;;;;;;35.05;20.77;;;154.00;2252.80;;;;;;5013263;28;20125;-72
2023/12/08 11:14:16;;;;;;;44.42;24.75;;;154.20;2252.80;;;;;;5000345;28;20022;-63
2023/12/08 11:16:51;;;;;;;46.92;24.13;;;154.00;2252.80;;;;;;5003452;28;20085;-68
2023/12/08 11:19:17;;;;;;;57.35;29.58;;;153.90;2252.80;;;;;;5007103;28;20052;-73
2023/12/08 11:21:43;;;;;;;33.70;19.67;;;153.90;2252.80;;;;;;5000882;28;20473;-72
2023/12/08 11:24:09;;;;;;;47.22;23.98;;;153.90;2252.80;;;;;;4999952;28;20121;-76
2023/12/08 11:26:44;;;;;;;66.53;33.72;;;154.00;2252.80;;;;;;5010254;28;20038;-67
2023/12/08 11:29:21;;;;;;;53.78;26.15;;;153.90;2252.80;;;;;;5011070;28;20045;-75
2023/12/08 11:31:59;;;;;;;69.95;33.95;;;153.60;2252.80;;;;;;5010753;28;20030;-68
2023/12/08 11:34:29;;;;;;;49.08;24.77;;;128.80;2252.80;;;;;;5013972;28;20386;-63
2023/12/08 11:36:55;;;;;;;43.50;24.67;;;153.60;2252.80;;;;;;5015344;28;20089;-68
2023/12/08 11:39:40;;;;;;;44.47;22.38;;;153.70;2252.80;;;;;;4996004;28;20034;-69
2023/12/08 11:42:13;;;;;;;39.30;21.88;;;153.70;2252.80;;;;;;5013610;28;20047;-67
2023/12/08 11:44:45;;;;;;;37.08;20.77;;;153.70;2252.80;;;;;;5014812;28;20029;-66
2023/12/08 11:47:14;;;;;;;37.72;20.95;;;153.70;2252.80;;;;;;5010132;28;20109;-76
2023/12/08 11:49:43;;;;;;;55.00;31.20;;;153.80;2252.80;;;;;;5034314;28;20041;-64
2023/12/08 11:52:19;;;;;;;46.47;23.02;;;153.80;2252.80;;;;;;5008924;28;20022;-74
2023/12/08 11:55:15;;;;;;;54.13;27.35;;;128.80;2252.80;;;;;;5018536;28;20444;-69
2023/12/08 11:57:41;;;;;;;43.67;23.45;;;128.80;2252.80;;;;;;5004878;28;20017;-62
2023/12/08 12:00:11;;;;;;;47.22;27.13;;;128.90;2252.80;;;;;;5014502;28;20037;-63
2023/12/08 12:02:41;;;;;;;46.47;25.75;;;128.90;2252.80;;;;;;5001402;28;20474;-62
2023/12/08 12:05:08;;;;;;;46.30;24.88;;;153.60;2252.80;;;;;;5014348;28;20028;-64